Terminal Aerodrome Forecast
Issued by NWS

Home | Current Version | Previous Version | Text Only | Print | Product List | Glossary On
Versions: 1 2 3 4 5 6 7 8 9 10 11 12 13 14 15 16 17 18 19 20 21 22 23
000
FTUS41 KILN 142300
TAFLCK
TAF
KLCK 142335Z 1500/1524 00000KT P6SM SKC
     FM151000 11004KT P6SM SCT250
     FM151400 16006KT P6SM BKN150
     FM151800 21008KT P6SM BKN150
     FM152300 21006KT P6SM VCSH SCT050 OVC080=

USA.gov is the U.S. government's official web portal to all federal, state and local government web resources and services.